Bryce Canyon Airport
KBCE : rendu visible

Aérodrome :











RETROUVEZ-NOUS SUR...

 
LOGIN :

S'inscrire | Disclaimer

   EN    FR    IT 

 









Légende :    VFR   VFR Marginal   IFR   IFR Intensif   IFR Très Intensif
Visi : 
Plafond : 
>= 8 km
>= 3000ft
5 à 8 km
1000 à 3000 ft
1500m à 5 km
500 à 1000 ft
800 à 1500m
200 à 500 ft
< 800m
< 200 ft
Symboles :   Orages  Brouillard  Fortes neiges  Fortes précipitations  Vent > 20 kt






- Altitude de l'aérodrome : 7590 ft


KBCE - Bryce Canyon

DERNIER METAR :
  • 172353Z AUTO 32012KT 10SM CLR M04/M14 A3017 RMK AO2 SLP206 60000 T10441139 11028 21056 51012

METARs EXPIRÉS :
  • 172253Z AUTO 32015G25KT 10SM CLR M03/M13 A3015 RMK AO2 PK WND 32029/2237 SLP191 T10331128
  • 172153Z AUTO 31015G20KT 10SM FEW041 M03/M12 A3015 RMK AO2 PK WND 31029/2059 UPB10E20 SLP197 P0000 T10281122

TAF KBCE
Valide du 18 à 00h jusqu'au 19 à 00h UTC


172328Z 1800/1824 33018G23KT P6SM SKC
FM180300 32010KT P6SM SCT180
FM181800 35007KT P6SM SCT120 BKN180



MET'MAP, la Météo Aéronautique d'un coup d'oeil ! - Copyright ORBIFLY Décembre 2007 - Disclaimer

ORBIFLY MET'MAP TEAM :

Programmation & Développement : Alexandra Zaïnal
Sur une idée originale de : Baudouin d'Aumeries
Assistance à la programmation : Marc-Olivier Méhu
Soutien technique & logistique : Manuel Goepfert

Contact : metmap@orbifly.com




SOURCES & CREDITS :

   NOAA       Earth
Advisory